sensor_id;sensor_type;location;lat;lon;timestamp;pressure;altitude;pressure_sealevel;temperature;humidity
45113;BME280;30873;53.908;27.576;2023-05-22T00:02:05;1022.4;;;17;87.9
45113;BME280;30873;53.908;27.576;2023-05-22T00:06:23;1022.4;;;16.9;92.6
45113;BME280;30873;53.908;27.576;2023-05-22T00:11:37;1022.4;;;16.9;92.9
45113;BME280;30873;53.908;27.576;2023-05-22T00:16:35;1022.4;;;16.7;93.3
45113;BME280;30873;53.908;27.576;2023-05-22T00:21:35;1022.4;;;16.7;93.8
45113;BME280;30873;53.908;27.576;2023-05-22T00:26:35;1022.4;;;16.6;92.5
45113;BME280;30873;53.908;27.576;2023-05-22T00:32:04;1022.4;;;16.6;93.2
45113;BME280;30873;53.908;27.576;2023-05-22T00:36:35;1022.4;;;16.5;93.3
45113;BME280;30873;53.908;27.576;2023-05-22T00:47:19;1022.4;;;16.4;95.6
45113;BME280;30873;53.908;27.576;2023-05-22T00:51:47;1022.4;;;16.5;95.7
45113;BME280;30873;53.908;27.576;2023-05-22T00:56:37;1022.3;;;16.5;96.3
45113;BME280;30873;53.908;27.576;2023-05-22T01:02:03;1022.3;;;16.6;96.7
45113;BME280;30873;53.908;27.576;2023-05-22T01:07:03;1022.3;;;16.6;96.4
45113;BME280;30873;53.908;27.576;2023-05-22T01:11:36;1022.3;;;16.6;96.8
45113;BME280;30873;53.908;27.576;2023-05-22T01:17:05;1022.3;;;16.8;98.9
45113;BME280;30873;53.908;27.576;2023-05-22T01:22:06;1022.3;;;16.9;97.3
45113;BME280;30873;53.908;27.576;2023-05-22T01:26:36;1022.3;;;16.9;97
45113;BME280;30873;53.908;27.576;2023-05-22T01:31:47;1022.3;;;17;97.8
45113;BME280;30873;53.908;27.576;2023-05-22T01:36:49;1022.3;;;17.1;97.4
45113;BME280;30873;53.908;27.576;2023-05-22T01:42:03;1022.2;;;17.2;96.5
45113;BME280;30873;53.908;27.576;2023-05-22T01:46:35;1022.2;;;17.1;96.9
45113;BME280;30873;53.908;27.576;2023-05-22T01:51:52;1022.2;;;17.2;97.7
45113;BME280;30873;53.908;27.576;2023-05-22T01:57:18;1022.1;;;17.2;97.7
45113;BME280;30873;53.908;27.576;2023-05-22T02:02:06;1022.2;;;17.3;96.5
45113;BME280;30873;53.908;27.576;2023-05-22T02:07:03;1022.2;;;17.3;94.9
45113;BME280;30873;53.908;27.576;2023-05-22T02:11:49;1022.1;;;17.3;94.6
45113;BME280;30873;53.908;27.576;2023-05-22T02:16:47;1022;;;17.4;94.2
45113;BME280;30873;53.908;27.576;2023-05-22T02:22:19;1021.9;;;17.4;95.1
45113;BME280;30873;53.908;27.576;2023-05-22T02:27:03;1022;;;17.4;97.7
45113;BME280;30873;53.908;27.576;2023-05-22T02:32:17;1021.9;;;17.4;96.5
45113;BME280;30873;53.908;27.576;2023-05-22T02:36:37;1021.9;;;17.4;95.9
45113;BME280;30873;53.908;27.576;2023-05-22T02:42:05;1021.9;;;17.4;98
45113;BME280;30873;53.908;27.576;2023-05-22T02:46:47;1021.9;;;17.5;94.6
45113;BME280;30873;53.908;27.576;2023-05-22T02:51:23;1021.9;;;17.6;91.5
45113;BME280;30873;53.908;27.576;2023-05-22T02:56:23;1021.8;;;17.6;93.1
45113;BME280;30873;53.908;27.576;2023-05-22T03:02:04;1021.8;;;17.6;93.1
45113;BME280;30873;53.908;27.576;2023-05-22T03:06:23;1021.8;;;17.6;93.8
45113;BME280;30873;53.908;27.576;2023-05-22T03:12:19;1021.7;;;17.7;93.3
45113;BME280;30873;53.908;27.576;2023-05-22T03:17:19;1021.7;;;17.8;92.2
45113;BME280;30873;53.908;27.576;2023-05-22T03:21:35;1021.7;;;17.9;91.1
45113;BME280;30873;53.908;27.576;2023-05-22T03:26:23;1021.7;;;18;90.3
45113;BME280;30873;53.908;27.576;2023-05-22T03:32:03;1021.7;;;18.1;89.5
45113;BME280;30873;53.908;27.576;2023-05-22T03:37:19;1021.8;;;18;87.9
45113;BME280;30873;53.908;27.576;2023-05-22T03:41:23;1021.8;;;18;88.2
45113;BME280;30873;53.908;27.576;2023-05-22T03:47:03;1021.7;;;18;87.5
45113;BME280;30873;53.908;27.576;2023-05-22T03:52:03;1021.7;;;18;88.4
45113;BME280;30873;53.908;27.576;2023-05-22T03:56:23;1021.7;;;18.2;87.6
45113;BME280;30873;53.908;27.576;2023-05-22T04:01:35;1021.7;;;18.6;84.1
45113;BME280;30873;53.908;27.576;2023-05-22T04:07:19;1021.7;;;18.7;81.8
45113;BME280;30873;53.908;27.576;2023-05-22T04:12:19;1021.7;;;18.8;80.4
45113;BME280;30873;53.908;27.576;2023-05-22T04:17:19;1021.6;;;18.9;77.6
45113;BME280;30873;53.908;27.576;2023-05-22T04:22:05;1021.6;;;18.8;74.9
45113;BME280;30873;53.908;27.576;2023-05-22T04:27:03;1021.7;;;18.9;73.8
45113;BME280;30873;53.908;27.576;2023-05-22T04:31:49;1021.6;;;19.1;72
45113;BME280;30873;53.908;27.576;2023-05-22T04:36:47;1021.6;;;19.4;69.7
45113;BME280;30873;53.908;27.576;2023-05-22T04:42:17;1021.6;;;19.7;66.5
45113;BME280;30873;53.908;27.576;2023-05-22T04:46:35;1021.6;;;19.9;62.5
45113;BME280;30873;53.908;27.576;2023-05-22T04:52:17;1021.6;;;20;61.9
45113;BME280;30873;53.908;27.576;2023-05-22T04:57:04;1021.6;;;20.1;61.2
45113;BME280;30873;53.908;27.576;2023-05-22T05:02:15;1021.6;;;20.4;58.7
45113;BME280;30873;53.908;27.576;2023-05-22T05:06:45;1021.6;;;20.5;56.5
45113;BME280;30873;53.908;27.576;2023-05-22T05:11:49;1021.7;;;20.6;54.8
45113;BME280;30873;53.908;27.576;2023-05-22T05:17:01;1021.6;;;20.7;53.6
45113;BME280;30873;53.908;27.576;2023-05-22T05:21:33;1021.6;;;20.8;52.9
45113;BME280;30873;53.908;27.576;2023-05-22T05:27:17;1021.6;;;21;51.9
45113;BME280;30873;53.908;27.576;2023-05-22T05:32:17;1021.6;;;21.1;51.2
45113;BME280;30873;53.908;27.576;2023-05-22T05:36:24;1021.6;;;21.2;50
45113;BME280;30873;53.908;27.576;2023-05-22T05:41:49;1021.7;;;21.3;49.3
45113;BME280;30873;53.908;27.576;2023-05-22T05:46:49;1021.7;;;21.1;48.6
45113;BME280;30873;53.908;27.576;2023-05-22T05:51:49;1021.6;;;21.2;48.2
45113;BME280;30873;53.908;27.576;2023-05-22T05:57:17;1021.6;;;21.7;47.5
45113;BME280;30873;53.908;27.576;2023-05-22T06:02:01;1021.6;;;22.2;46.4
45113;BME280;30873;53.908;27.576;2023-05-22T06:07:15;1021.6;;;22.5;45.6
45113;BME280;30873;53.908;27.576;2023-05-22T06:11:35;1021.6;;;22.6;45.3
45113;BME280;30873;53.908;27.576;2023-05-22T06:17:13;1021.6;;;22.9;44.9
45113;BME280;30873;53.908;27.576;2023-05-22T06:21:49;1021.6;;;23.3;43.8
45113;BME280;30873;53.908;27.576;2023-05-22T06:26:33;1021.6;;;23.5;43.5
45113;BME280;30873;53.908;27.576;2023-05-22T06:31:45;1021.6;;;23.7;43
45113;BME280;30873;53.908;27.576;2023-05-22T06:37:15;1021.5;;;23.9;41.6
45113;BME280;30873;53.908;27.576;2023-05-22T06:42:16;1021.5;;;23.7;41.6
45113;BME280;30873;53.908;27.576;2023-05-22T06:47:17;1021.5;;;23.8;41.6
45113;BME280;30873;53.908;27.576;2023-05-22T06:52:05;1021.5;;;23.8;41.5
45113;BME280;30873;53.908;27.576;2023-05-22T06:56:45;1021.4;;;23.9;41
45113;BME280;30873;53.908;27.576;2023-05-22T07:01:23;1021.4;;;24.4;40.3
45113;BME280;30873;53.908;27.576;2023-05-22T07:06:33;1021.4;;;24.2;40.2
45113;BME280;30873;53.908;27.576;2023-05-22T07:12:17;1021.3;;;24.3;40.2
45113;BME280;30873;53.908;27.576;2023-05-22T07:17:01;1021.3;;;24.1;41.1
45113;BME280;30873;53.908;27.576;2023-05-22T07:22:15;1021.3;;;24.5;40.3
45113;BME280;30873;53.908;27.576;2023-05-22T07:27:03;1021.3;;;24.7;40.1
45113;BME280;30873;53.908;27.576;2023-05-22T07:32:17;1021.2;;;24.8;39.8
45113;BME280;30873;53.908;27.576;2023-05-22T07:36:35;1021.2;;;24.4;40.2
45113;BME280;30873;53.908;27.576;2023-05-22T07:41:47;1021.2;;;24.2;40.4
45113;BME280;30873;53.908;27.576;2023-05-22T07:47:01;1021.2;;;24.2;38.5
45113;BME280;30873;53.908;27.576;2023-05-22T07:51:35;1021.2;;;24.4;38.4
45113;BME280;30873;53.908;27.576;2023-05-22T07:57:17;1021.2;;;24.9;37.1
45113;BME280;30873;53.908;27.576;2023-05-22T08:02:14;1021.2;;;25.3;35.5
45113;BME280;30873;53.908;27.576;2023-05-22T08:06:33;1021.1;;;25.9;34.5
45113;BME280;30873;53.908;27.576;2023-05-22T08:11:59;1021.1;;;26.4;32.1
45113;BME280;30873;53.908;27.576;2023-05-22T08:16:47;1021.1;;;26.6;31
45113;BME280;30873;53.908;27.576;2023-05-22T08:21:47;1021.1;;;26.6;30.3
45113;BME280;30873;53.908;27.576;2023-05-22T08:27:15;1021;;;26.9;29.8
45113;BME280;30873;53.908;27.576;2023-05-22T08:31:59;1021;;;27.1;28.9
45113;BME280;30873;53.908;27.576;2023-05-22T08:37:03;1021;;;27.3;29
45113;BME280;30873;53.908;27.576;2023-05-22T08:41:37;1021;;;27.4;28.7
45113;BME280;30873;53.908;27.576;2023-05-22T08:47:14;1021;;;27.5;28.6
45113;BME280;30873;53.908;27.576;2023-05-22T08:51:47;1021;;;27.9;28.8
45113;BME280;30873;53.908;27.576;2023-05-22T08:56:49;1020.9;;;28.2;28.1
45113;BME280;30873;53.908;27.576;2023-05-22T09:01:33;1021;;;28.6;27.8
45113;BME280;30873;53.908;27.576;2023-05-22T09:07:15;1021;;;29;27.2
45113;BME280;30873;53.908;27.576;2023-05-22T09:12:15;1020.9;;;29.1;27.2
45113;BME280;30873;53.908;27.576;2023-05-22T09:17:15;1020.9;;;29.3;26.9
45113;BME280;30873;53.908;27.576;2023-05-22T09:21:26;1020.9;;;29.3;27.1
45113;BME280;30873;53.908;27.576;2023-05-22T09:26:43;1020.8;;;29.3;26.8
45113;BME280;30873;53.908;27.576;2023-05-22T09:32:04;1020.7;;;29.4;26.9
45113;BME280;30873;53.908;27.576;2023-05-22T09:36:49;1020.7;;;29.4;26.9
45113;BME280;30873;53.908;27.576;2023-05-22T09:42:14;1020.7;;;29.4;26.9
45113;BME280;30873;53.908;27.576;2023-05-22T09:46:47;1020.7;;;28.9;24.6
45113;BME280;30873;53.908;27.576;2023-05-22T09:52:15;1020.7;;;28.4;24.5
45113;BME280;30873;53.908;27.576;2023-05-22T09:57:04;1020.6;;;28.5;24.3
45113;BME280;30873;53.908;27.576;2023-05-22T10:02:13;1020.6;;;28.5;24.5
45113;BME280;30873;53.908;27.576;2023-05-22T10:06:43;1020.6;;;28.8;24.8
45113;BME280;30873;53.908;27.576;2023-05-22T10:11:33;1020.5;;;29.3;24.6
45113;BME280;30873;53.908;27.576;2023-05-22T10:16:55;1020.4;;;29.8;24.4
45113;BME280;30873;53.908;27.576;2023-05-22T10:21:34;1020.4;;;30.5;23.2
45113;BME280;30873;53.908;27.576;2023-05-22T10:27:15;1020.4;;;29.5;23.3
45113;BME280;30873;53.908;27.576;2023-05-22T10:32:17;1020.4;;;29.2;23.7
45113;BME280;30873;53.908;27.576;2023-05-22T10:36:37;1020.3;;;29.7;23.5
45113;BME280;30873;53.908;27.576;2023-05-22T10:42:00;1020.3;;;31;22.6
45113;BME280;30873;53.908;27.576;2023-05-22T10:46:48;1020.3;;;32.8;21.1
45113;BME280;30873;53.908;27.576;2023-05-22T10:51:33;1020.2;;;33.8;20.3
45113;BME280;30873;53.908;27.576;2023-05-22T10:57:15;1020.1;;;36.3;18.8
45113;BME280;30873;53.908;27.576;2023-05-22T11:01:59;1020.1;;;36.4;18.2
45113;BME280;30873;53.908;27.576;2023-05-22T11:07:04;1020.1;;;36.8;17.8
45113;BME280;30873;53.908;27.576;2023-05-22T11:11:24;1020;;;37.8;17
45113;BME280;30873;53.908;27.576;2023-05-22T11:17:16;1019.9;;;38.3;16.6
45113;BME280;30873;53.908;27.576;2023-05-22T11:21:59;1020;;;36.9;17.2
45113;BME280;30873;53.908;27.576;2023-05-22T11:26:23;1019.9;;;35;18.2
45113;BME280;30873;53.908;27.576;2023-05-22T11:31:34;1019.9;;;33.3;19.4
45113;BME280;30873;53.908;27.576;2023-05-22T11:37:16;1019.9;;;33.9;19.3
45113;BME280;30873;53.908;27.576;2023-05-22T11:42:16;1019.9;;;32.8;20
45113;BME280;30873;53.908;27.576;2023-05-22T11:47:15;1019.9;;;32.2;20.5
45113;BME280;30873;53.908;27.576;2023-05-22T11:52:04;1019.9;;;32.1;20.8
45113;BME280;30873;53.908;27.576;2023-05-22T11:56:45;1019.9;;;31.7;20.7
45113;BME280;30873;53.908;27.576;2023-05-22T12:01:35;1019.8;;;31;21.4
45113;BME280;30873;53.908;27.576;2023-05-22T12:06:23;1019.8;;;30.9;21.7
45113;BME280;30873;53.908;27.576;2023-05-22T12:12:14;1019.8;;;30.6;21.8
45113;BME280;30873;53.908;27.576;2023-05-22T12:16:23;1019.8;;;30.9;21.8
45113;BME280;30873;53.908;27.576;2023-05-22T12:22:18;1019.8;;;32.7;20.5
45113;BME280;30873;53.908;27.576;2023-05-22T12:27:02;1019.7;;;31.9;20.8
45113;BME280;30873;53.908;27.576;2023-05-22T12:32:15;1019.7;;;31.2;21.5
45113;BME280;30873;53.908;27.576;2023-05-22T12:36:59;1019.7;;;30.6;22
45113;BME280;30873;53.908;27.576;2023-05-22T12:41:47;1019.7;;;30;22.3
45113;BME280;30873;53.908;27.576;2023-05-22T12:46:50;1019.7;;;29.4;22.8
45113;BME280;30873;53.908;27.576;2023-05-22T12:51:34;1019.6;;;29;23.2
45113;BME280;30873;53.908;27.576;2023-05-22T12:57:03;1019.6;;;28.7;23.7
45113;BME280;30873;53.908;27.576;2023-05-22T13:02:02;1019.7;;;28.4;23.8
45113;BME280;30873;53.908;27.576;2023-05-22T13:07:04;1019.6;;;28.2;23.8
45113;BME280;30873;53.908;27.576;2023-05-22T13:11:46;1019.6;;;28.3;23.9
45113;BME280;30873;53.908;27.576;2023-05-22T13:16:47;1019.6;;;28.2;24.5
45113;BME280;30873;53.908;27.576;2023-05-22T13:21:24;1019.5;;;28.5;24.5
45113;BME280;30873;53.908;27.576;2023-05-22T13:27:16;1019.5;;;28.4;24.4
45113;BME280;30873;53.908;27.576;2023-05-22T13:32:00;1019.4;;;28.5;24.3
45113;BME280;30873;53.908;27.576;2023-05-22T13:37:14;1019.4;;;28.5;24.3
45113;BME280;30873;53.908;27.576;2023-05-22T13:41:34;1019.4;;;28.6;24.3
45113;BME280;30873;53.908;27.576;2023-05-22T13:46:48;1019.4;;;28.7;24.2
45113;BME280;30873;53.908;27.576;2023-05-22T13:51:46;1019.4;;;29;23.9
45113;BME280;30873;53.908;27.576;2023-05-22T13:56:24;1019.4;;;28.8;24.1
45113;BME280;30873;53.908;27.576;2023-05-22T14:01:46;1019.4;;;28.9;23.8
45113;BME280;30873;53.908;27.576;2023-05-22T14:07:02;1019.3;;;29.2;23.5
45113;BME280;30873;53.908;27.576;2023-05-22T14:11:50;1019.3;;;29.2;23.4
45113;BME280;30873;53.908;27.576;2023-05-22T14:17:00;1019.2;;;29.2;23.5
45113;BME280;30873;53.908;27.576;2023-05-22T14:26:50;1019.1;;;29.1;23.8
45113;BME280;30873;53.908;27.576;2023-05-22T14:31:48;1019.1;;;29.1;23.5
45113;BME280;30873;53.908;27.576;2023-05-22T14:36:38;1019.1;;;29;23.4
45113;BME280;30873;53.908;27.576;2023-05-22T14:42:18;1019.1;;;29;23.7
45113;BME280;30873;53.908;27.576;2023-05-22T14:47:04;1019.2;;;28.9;23.6
45113;BME280;30873;53.908;27.576;2023-05-22T15:06:34;1019.1;;;28.7;23.6
45113;BME280;30873;53.908;27.576;2023-05-22T15:32:16;1018.9;;;28.4;24.2
45113;BME280;30873;53.908;27.576;2023-05-22T15:36:25;1018.9;;;28.3;24.2
45113;BME280;30873;53.908;27.576;2023-05-22T15:42:02;1018.9;;;28;24.4
45113;BME280;30873;53.908;27.576;2023-05-22T15:47:06;1018.9;;;27.9;24.6
45113;BME280;30873;53.908;27.576;2023-05-22T15:51:24;1018.9;;;27.9;24.6
45113;BME280;30873;53.908;27.576;2023-05-22T16:11:24;1018.7;;;27.6;25.1
45113;BME280;30873;53.908;27.576;2023-05-22T16:16:50;1018.7;;;27.5;25.1
45113;BME280;30873;53.908;27.576;2023-05-22T16:41:36;1018.7;;;27.5;25.1
45113;BME280;30873;53.908;27.576;2023-05-22T16:47:18;1018.8;;;27.8;24.8
45113;BME280;30873;53.908;27.576;2023-05-22T16:52:16;1018.8;;;27.2;25.5
45113;BME280;30873;53.908;27.576;2023-05-22T16:56:24;1018.8;;;26.7;26.1
45113;BME280;30873;53.908;27.576;2023-05-22T17:01:24;1018.8;;;26.3;26.8
45113;BME280;30873;53.908;27.576;2023-05-22T17:07:02;1018.8;;;25.9;27.8
45113;BME280;30873;53.908;27.576;2023-05-22T17:12:18;1018.8;;;25.4;28.8
45113;BME280;30873;53.908;27.576;2023-05-22T17:22:02;1018.9;;;25.3;29.4
45113;BME280;30873;53.908;27.576;2023-05-22T17:26:40;1018.9;;;24.8;30.9
45113;BME280;30873;53.908;27.576;2023-05-22T17:32:02;1018.9;;;24.5;31.7
45113;BME280;30873;53.908;27.576;2023-05-22T18:52:00;1018.9;;;24.5;31.7
45113;BME280;30873;53.908;27.576;2023-05-22T18:56:36;1019.1;;;21.7;38.8
45113;BME280;30873;53.908;27.576;2023-05-22T19:02:08;1019.1;;;21.8;39
45113;BME280;30873;53.908;27.576;2023-05-22T19:07:18;1019.1;;;21.9;39.5
45113;BME280;30873;53.908;27.576;2023-05-22T19:11:24;1019.1;;;21.8;40.1
45113;BME280;30873;53.908;27.576;2023-05-22T19:17:02;1019;;;21.8;40.7
45113;BME280;30873;53.908;27.576;2023-05-22T19:21:38;1019;;;21.7;41.5
45113;BME280;30873;53.908;27.576;2023-05-22T19:27:02;1019;;;21.7;42.2
45113;BME280;30873;53.908;27.576;2023-05-22T19:32:14;1019;;;21.7;43
45113;BME280;30873;53.908;27.576;2023-05-22T19:36:40;1019.1;;;21.8;43.4
45113;BME280;30873;53.908;27.576;2023-05-22T19:42:02;1019.1;;;21.8;44
45113;BME280;30873;53.908;27.576;2023-05-22T19:46:48;1019.1;;;21.6;45
45113;BME280;30873;53.908;27.576;2023-05-22T19:52:14;1019;;;21.6;45.4
45113;BME280;30873;53.908;27.576;2023-05-22T19:56:48;1019;;;21.5;45.9
45113;BME280;30873;53.908;27.576;2023-05-22T20:01:34;1019;;;21.4;46.4
45113;BME280;30873;53.908;27.576;2023-05-22T20:06:34;1019;;;21.3;47.2
45113;BME280;30873;53.908;27.576;2023-05-22T20:12:16;1019;;;21.2;47.8
45113;BME280;30873;53.908;27.576;2023-05-22T20:17:14;1018.9;;;21.2;48.2
45113;BME280;30873;53.908;27.576;2023-05-22T20:22:14;1019;;;21.1;48.8
45113;BME280;30873;53.908;27.576;2023-05-22T20:27:04;1019;;;21.1;49.1
45113;BME280;30873;53.908;27.576;2023-05-22T20:31:34;1018.9;;;20.9;49.6
45113;BME280;30873;53.908;27.576;2023-05-22T20:36:24;1018.9;;;20.8;50.1
45113;BME280;30873;53.908;27.576;2023-05-22T20:41:24;1018.9;;;20.7;50.5
45113;BME280;30873;53.908;27.576;2023-05-22T20:47:16;1018.9;;;20.6;51
45113;BME280;30873;53.908;27.576;2023-05-22T20:51:24;1018.9;;;20.5;51.4
45113;BME280;30873;53.908;27.576;2023-05-22T20:57:18;1018.9;;;20.4;51.7
45113;BME280;30873;53.908;27.576;2023-05-22T21:02:06;1018.9;;;20.4;52.1
45113;BME280;30873;53.908;27.576;2023-05-22T21:07:18;1018.9;;;20.3;52.4
45113;BME280;30873;53.908;27.576;2023-05-22T21:11:46;1018.9;;;20.3;52.7
45113;BME280;30873;53.908;27.576;2023-05-22T21:17:02;1018.9;;;20.2;53.1
45113;BME280;30873;53.908;27.576;2023-05-22T21:21:48;1018.9;;;20.1;53.9
45113;BME280;30873;53.908;27.576;2023-05-22T21:26:24;1018.9;;;20.1;54.5
45113;BME280;30873;53.908;27.576;2023-05-22T21:32:18;1018.9;;;20.1;54.6
45113;BME280;30873;53.908;27.576;2023-05-22T21:37:18;1018.9;;;20.1;55.2
45113;BME280;30873;53.908;27.576;2023-05-22T21:41:24;1019;;;20;55.8
45113;BME280;30873;53.908;27.576;2023-05-22T21:47:02;1019;;;19.9;56.2
45113;BME280;30873;53.908;27.576;2023-05-22T21:51:42;1019.1;;;19.9;56.5
45113;BME280;30873;53.908;27.576;2023-05-22T21:56:24;1019.1;;;19.8;57
45113;BME280;30873;53.908;27.576;2023-05-22T22:02:18;1019.1;;;19.8;57.2
45113;BME280;30873;53.908;27.576;2023-05-22T22:07:02;1019.1;;;19.9;57
45113;BME280;30873;53.908;27.576;2023-05-22T22:12:16;1019;;;19.9;57.1
45113;BME280;30873;53.908;27.576;2023-05-22T22:16:38;1019;;;19.9;57.5
45113;BME280;30873;53.908;27.576;2023-05-22T22:21:50;1019;;;19.8;57.8
45113;BME280;30873;53.908;27.576;2023-05-22T22:26:36;1019;;;19.8;57.8
45113;BME280;30873;53.908;27.576;2023-05-22T22:31:34;1019;;;19.8;58.8
45113;BME280;30873;53.908;27.576;2023-05-22T22:36:28;1019;;;19.7;60.1
45113;BME280;30873;53.908;27.576;2023-05-22T22:42:02;1019;;;19.6;61.2
45113;BME280;30873;53.908;27.576;2023-05-22T22:46:50;1019;;;19.6;61.6
45113;BME280;30873;53.908;27.576;2023-05-22T22:52:18;1019;;;19.5;63.2
45113;BME280;30873;53.908;27.576;2023-05-22T22:57:18;1019;;;19.4;64.5
45113;BME280;30873;53.908;27.576;2023-05-22T23:02:02;1018.9;;;19.3;65.8
45113;BME280;30873;53.908;27.576;2023-05-22T23:07:06;1018.9;;;19.1;67.5
45113;BME280;30873;53.908;27.576;2023-05-22T23:12:02;1018.8;;;19.1;68.5
45113;BME280;30873;53.908;27.576;2023-05-22T23:17:18;1018.8;;;19;69.7
45113;BME280;30873;53.908;27.576;2023-05-22T23:21:24;1018.7;;;18.8;71.8
45113;BME280;30873;53.908;27.576;2023-05-22T23:27:02;1018.7;;;18.7;73.3
45113;BME280;30873;53.908;27.576;2023-05-22T23:32:06;1018.7;;;18.7;73.8
45113;BME280;30873;53.908;27.576;2023-05-22T23:36:34;1018.7;;;18.7;74.4
45113;BME280;30873;53.908;27.576;2023-05-22T23:41:24;1018.7;;;18.6;76
45113;BME280;30873;53.908;27.576;2023-05-22T23:46:24;1018.6;;;18.3;78.5
45113;BME280;30873;53.908;27.576;2023-05-22T23:52:02;1018.6;;;18.2;80.3
45113;BME280;30873;53.908;27.576;2023-05-22T23:56:24;1018.6;;;18.1;81.4
